createdAt,value
2022-08-01T08:12:28.838Z,20.60
2022-08-01T08:14:57.573Z,20.60
2022-08-01T08:17:24.271Z,20.60
2022-08-01T08:19:50.861Z,20.60
2022-08-01T08:22:17.482Z,20.70
2022-08-01T08:24:46.589Z,20.80
2022-08-01T08:27:14.229Z,20.90
2022-08-01T08:29:40.823Z,20.90
2022-08-01T08:32:08.266Z,20.90
2022-08-01T08:34:35.133Z,21.00
2022-08-01T08:37:01.804Z,20.90
2022-08-01T08:39:30.547Z,21.00
2022-08-01T08:42:00.741Z,21.00
2022-08-01T08:44:27.372Z,21.10
2022-08-01T08:46:56.942Z,21.00
2022-08-01T08:49:25.848Z,21.00
2022-08-01T08:51:53.885Z,21.00
2022-08-01T08:54:30.796Z,21.20
2022-08-01T08:57:01.471Z,21.40
2022-08-01T08:59:29.253Z,21.40
2022-08-01T09:01:56.897Z,21.60
2022-08-01T09:04:26.456Z,21.70
2022-08-01T09:06:54.340Z,21.70
2022-08-01T09:09:21.040Z,21.60
2022-08-01T09:11:56.748Z,21.60
2022-08-01T09:14:28.038Z,21.50
2022-08-01T09:17:11.306Z,21.50
2022-08-01T09:19:43.574Z,21.40
2022-08-01T09:22:18.888Z,21.50
2022-08-01T09:25:03.986Z,21.60
2022-08-01T09:27:31.709Z,21.70
2022-08-01T09:30:13.052Z,21.70
2022-08-01T09:33:01.586Z,21.90
2022-08-01T09:35:36.226Z,21.80
2022-08-01T09:38:17.451Z,21.90
2022-08-01T09:40:48.131Z,21.80
2022-08-01T09:43:16.373Z,21.70
2022-08-01T09:45:43.853Z,21.60
2022-08-01T09:48:17.013Z,21.60
2022-08-01T09:50:45.747Z,21.50
2022-08-01T09:53:29.697Z,21.50
2022-08-01T09:56:13.109Z,21.50
2022-08-01T09:59:01.110Z,21.50
2022-08-01T10:01:37.174Z,21.50
2022-08-01T10:04:13.699Z,21.50
2022-08-01T10:06:44.881Z,21.60
2022-08-01T10:09:14.360Z,21.70
2022-08-01T10:11:45.467Z,21.70
2022-08-01T10:14:17.650Z,21.70
2022-08-01T10:16:45.948Z,21.60
2022-08-01T10:19:21.623Z,21.70
2022-08-01T10:21:57.020Z,21.80
2022-08-01T10:24:27.372Z,21.90
2022-08-01T10:27:05.882Z,21.80
2022-08-01T10:30:08.449Z,21.90
2022-08-01T10:32:50.640Z,21.90
2022-08-01T10:35:45.762Z,21.90
2022-08-01T10:38:06.116Z,21.80
2022-08-01T10:40:38.816Z,21.80
2022-08-01T10:43:07.560Z,21.80
2022-08-01T10:45:34.807Z,21.90
2022-08-01T10:48:05.322Z,21.90
2022-08-01T10:50:48.654Z,21.80
2022-08-01T10:53:23.358Z,21.80
2022-08-01T10:56:03.575Z,21.80
2022-08-01T10:58:42.266Z,21.90
2022-08-01T11:01:15.756Z,22.10
2022-08-01T11:04:01.223Z,22.20
2022-08-01T11:06:34.321Z,22.30
2022-08-01T11:09:18.820Z,22.20
2022-08-01T11:12:01.602Z,22.30
2022-08-01T11:14:53.646Z,22.20
2022-08-01T11:17:54.853Z,22.20
2022-08-01T11:20:23.604Z,22.10
2022-08-01T11:23:03.406Z,21.70
2022-08-01T11:26:05.070Z,21.60
2022-08-01T11:28:35.765Z,21.40
2022-08-01T11:31:07.576Z,21.40
2022-08-01T11:33:46.071Z,21.20
2022-08-01T11:36:36.959Z,21.00
2022-08-01T11:39:13.761Z,21.00
2022-08-01T11:41:41.771Z,21.00
2022-08-01T11:44:18.797Z,21.10
2022-08-01T11:47:08.620Z,21.20
2022-08-01T11:49:48.702Z,21.40
2022-08-01T11:52:24.591Z,21.60
2022-08-01T11:54:55.745Z,21.80
2022-08-01T11:57:32.467Z,22.00
2022-08-01T12:00:07.083Z,22.20
2022-08-01T12:02:36.251Z,22.30
2022-08-01T12:05:06.166Z,22.50
2022-08-01T12:07:36.623Z,22.50
2022-08-01T12:10:07.342Z,22.60
2022-08-01T12:12:36.075Z,22.70
2022-08-01T12:15:06.576Z,22.70
2022-08-01T12:17:45.108Z,22.60
2022-08-01T12:20:24.961Z,22.70
2022-08-01T12:22:55.964Z,23.00
2022-08-01T12:25:22.921Z,23.00
2022-08-01T12:27:54.370Z,23.20
2022-08-01T12:30:26.124Z,23.10
2022-08-01T12:32:54.466Z,23.40
2022-08-01T12:35:24.470Z,23.60
2022-08-01T12:38:03.382Z,23.80
2022-08-01T12:40:33.246Z,23.70
2022-08-01T12:43:03.065Z,23.80
2022-08-01T12:45:40.539Z,24.10
2022-08-01T12:48:21.461Z,23.90
2022-08-01T12:50:53.156Z,23.50
2022-08-01T12:53:21.506Z,24.00
2022-08-01T12:55:58.092Z,24.10
2022-08-01T12:58:32.327Z,24.40
2022-08-01T13:01:08.455Z,24.60
2022-08-01T13:03:35.317Z,24.70
2022-08-01T13:06:02.403Z,24.20
2022-08-01T13:08:35.784Z,23.90
2022-08-01T13:11:05.820Z,23.60
2022-08-01T13:13:40.949Z,23.50
2022-08-01T13:16:12.304Z,23.60
2022-08-01T13:18:49.600Z,23.40
2022-08-01T13:21:24.393Z,23.50
2022-08-01T13:24:07.937Z,23.40
2022-08-01T13:27:01.055Z,23.30
2022-08-01T13:29:35.632Z,23.30
2022-08-01T13:32:27.872Z,23.30
2022-08-01T13:35:07.510Z,23.60
2022-08-01T13:37:37.054Z,23.80
2022-08-01T13:40:05.887Z,23.80
2022-08-01T13:42:32.925Z,23.60
2022-08-01T13:44:59.617Z,23.50
2022-08-01T13:47:31.554Z,23.50
2022-08-01T13:50:03.910Z,23.40
2022-08-01T13:52:31.587Z,23.40
2022-08-01T13:54:58.893Z,23.60
2022-08-01T13:57:25.491Z,23.70
2022-08-01T13:59:52.552Z,23.80
2022-08-01T14:02:20.487Z,23.80
2022-08-01T14:04:47.524Z,23.90
2022-08-01T14:07:15.046Z,24.10
2022-08-01T14:10:04.237Z,24.20
2022-08-01T14:12:29.592Z,24.40
2022-08-01T14:14:56.244Z,24.70
2022-08-01T14:17:22.886Z,24.80
2022-08-01T14:19:49.616Z,24.90
2022-08-01T14:22:16.256Z,25.00
2022-08-01T14:24:43.332Z,25.10
2022-08-01T14:27:11.139Z,25.10
2022-08-01T14:30:02.111Z,24.80
2022-08-01T14:32:28.622Z,24.50
2022-08-01T14:34:56.976Z,24.20
2022-08-01T14:37:27.873Z,24.30
2022-08-01T14:39:57.067Z,24.90
2022-08-01T14:42:25.693Z,24.80
2022-08-01T14:44:52.296Z,24.60
2022-08-01T14:47:21.743Z,24.60
2022-08-01T14:49:49.482Z,24.50
2022-08-01T14:52:16.129Z,24.40
2022-08-01T14:54:42.714Z,24.60
2022-08-01T14:57:09.515Z,24.40
2022-08-01T14:59:36.881Z,24.10
2022-08-01T15:02:04.153Z,23.90
2022-08-01T15:04:31.498Z,23.80
2022-08-01T15:06:58.218Z,23.70
2022-08-01T15:09:24.809Z,23.60
2022-08-01T15:11:51.463Z,23.70
2022-08-01T15:14:36.816Z,23.50
2022-08-01T15:17:03.696Z,23.50
2022-08-01T15:19:30.340Z,23.60
2022-08-01T15:21:56.943Z,23.80
2022-08-01T15:24:23.570Z,24.00
2022-08-01T15:26:50.162Z,24.20
2022-08-01T15:29:18.173Z,24.40
2022-08-01T15:31:44.758Z,24.40
2022-08-01T15:34:11.827Z,24.30
2022-08-01T15:36:41.960Z,24.40
2022-08-01T15:39:11.227Z,24.40
2022-08-01T15:41:38.386Z,24.50
2022-08-01T15:44:05.005Z,24.60
2022-08-01T15:46:31.685Z,24.70
2022-08-01T15:48:58.379Z,24.60
2022-08-01T15:51:24.986Z,24.70
2022-08-01T15:53:51.592Z,24.80
2022-08-01T15:56:18.191Z,24.70
2022-08-01T16:02:44.095Z,24.90
2022-08-01T16:05:43.364Z,25.00
2022-08-01T16:08:12.550Z,25.20
2022-08-01T16:10:43.944Z,25.00
2022-08-01T16:13:11.225Z,24.80
2022-08-01T16:15:39.235Z,24.50
2022-08-01T16:18:09.631Z,24.40
2022-08-01T16:20:41.489Z,24.30
2022-08-01T16:23:11.203Z,24.20
2022-08-01T16:25:51.118Z,24.20
2022-08-01T16:28:18.897Z,24.40
2022-08-01T16:30:54.226Z,24.40
2022-08-01T16:33:41.585Z,24.30
2022-08-01T16:36:21.392Z,24.30
2022-08-01T16:38:49.886Z,24.50
2022-08-01T16:41:19.684Z,24.50
2022-08-01T16:43:53.087Z,24.50
2022-08-01T16:46:22.512Z,24.50
2022-08-01T16:48:49.385Z,24.40
2022-08-01T16:51:16.100Z,24.20
2022-08-01T16:53:42.771Z,24.10
2022-08-01T16:56:09.378Z,24.10
2022-08-01T16:58:36.090Z,24.20
2022-08-01T17:01:58.817Z,24.20
2022-08-01T17:03:53.749Z,24.20
2022-08-01T17:06:22.253Z,24.10
